sensor_id;sensor_type;location;lat;lon;timestamp;P1;durP1;ratioP1;P2;durP2;ratioP2
27505;SDS011;14939;43.596;1.320;2024-03-02T00:00:01;12.25;;;8.75;;
27505;SDS011;14939;43.596;1.320;2024-03-02T00:02:39;10.90;;;7.68;;
27505;SDS011;14939;43.596;1.320;2024-03-02T00:05:09;10.98;;;6.55;;
27505;SDS011;14939;43.596;1.320;2024-03-02T00:07:37;9.90;;;6.28;;
27505;SDS011;14939;43.596;1.320;2024-03-02T00:10:08;8.90;;;5.55;;
27505;SDS011;14939;43.596;1.320;2024-03-02T00:12:38;8.43;;;5.68;;
27505;SDS011;14939;43.596;1.320;2024-03-02T00:15:05;10.18;;;6.05;;
27505;SDS011;14939;43.596;1.320;2024-03-02T00:17:54;10.90;;;4.72;;
27505;SDS011;14939;43.596;1.320;2024-03-02T00:20:21;10.40;;;5.28;;
27505;SDS011;14939;43.596;1.320;2024-03-02T00:22:48;7.97;;;4.82;;
27505;SDS011;14939;43.596;1.320;2024-03-02T00:25:15;9.32;;;4.43;;
27505;SDS011;14939;43.596;1.320;2024-03-02T00:27:41;7.13;;;3.40;;
27505;SDS011;14939;43.596;1.320;2024-03-02T00:30:35;8.10;;;3.58;;
27505;SDS011;14939;43.596;1.320;2024-03-02T00:33:07;6.63;;;2.80;;
27505;SDS011;14939;43.596;1.320;2024-03-02T00:35:33;8.40;;;3.42;;
27505;SDS011;14939;43.596;1.320;2024-03-02T00:38:03;10.40;;;3.80;;
27505;SDS011;14939;43.596;1.320;2024-03-02T00:40:31;6.55;;;3.65;;
27505;SDS011;14939;43.596;1.320;2024-03-02T00:42:57;9.43;;;3.30;;
27505;SDS011;14939;43.596;1.320;2024-03-02T00:45:23;7.50;;;3.78;;
27505;SDS011;14939;43.596;1.320;2024-03-02T00:47:50;7.22;;;4.25;;
27505;SDS011;14939;43.596;1.320;2024-03-02T00:50:16;12.75;;;5.00;;
27505;SDS011;14939;43.596;1.320;2024-03-02T00:52:42;8.75;;;4.00;;
27505;SDS011;14939;43.596;1.320;2024-03-02T00:55:08;9.10;;;4.15;;
27505;SDS011;14939;43.596;1.320;2024-03-02T00:57:34;7.80;;;4.30;;
27505;SDS011;14939;43.596;1.320;2024-03-02T01:00:00;7.20;;;3.30;;
27505;SDS011;14939;43.596;1.320;2024-03-02T01:02:26;6.53;;;3.15;;
27505;SDS011;14939;43.596;1.320;2024-03-02T01:04:51;5.57;;;3.05;;
27505;SDS011;14939;43.596;1.320;2024-03-02T01:07:17;10.23;;;2.70;;
27505;SDS011;14939;43.596;1.320;2024-03-02T01:09:43;8.45;;;2.75;;
27505;SDS011;14939;43.596;1.320;2024-03-02T01:12:10;5.70;;;2.85;;
27505;SDS011;14939;43.596;1.320;2024-03-02T01:14:35;7.07;;;3.28;;
27505;SDS011;14939;43.596;1.320;2024-03-02T01:17:01;8.00;;;3.33;;
27505;SDS011;14939;43.596;1.320;2024-03-02T01:19:29;6.88;;;3.22;;
27505;SDS011;14939;43.596;1.320;2024-03-02T01:21:55;8.07;;;2.50;;
27505;SDS011;14939;43.596;1.320;2024-03-02T01:24:20;6.45;;;2.42;;
27505;SDS011;14939;43.596;1.320;2024-03-02T01:26:46;5.40;;;2.65;;
27505;SDS011;14939;43.596;1.320;2024-03-02T01:29:12;7.72;;;2.97;;
27505;SDS011;14939;43.596;1.320;2024-03-02T01:31:37;8.30;;;2.42;;
27505;SDS011;14939;43.596;1.320;2024-03-02T01:34:07;4.80;;;2.25;;
27505;SDS011;14939;43.596;1.320;2024-03-02T01:36:32;7.65;;;2.08;;
27505;SDS011;14939;43.596;1.320;2024-03-02T01:38:58;5.90;;;1.88;;
27505;SDS011;14939;43.596;1.320;2024-03-02T01:41:24;5.93;;;1.85;;
27505;SDS011;14939;43.596;1.320;2024-03-02T01:43:50;6.68;;;1.90;;
27505;SDS011;14939;43.596;1.320;2024-03-02T01:46:15;4.50;;;1.80;;
27505;SDS011;14939;43.596;1.320;2024-03-02T01:48:41;4.18;;;1.50;;
27505;SDS011;14939;43.596;1.320;2024-03-02T01:51:06;5.80;;;1.92;;
27505;SDS011;14939;43.596;1.320;2024-03-02T01:53:32;5.75;;;1.83;;
27505;SDS011;14939;43.596;1.320;2024-03-02T01:55:59;6.95;;;2.70;;
27505;SDS011;14939;43.596;1.320;2024-03-02T01:58:26;7.97;;;2.45;;
27505;SDS011;14939;43.596;1.320;2024-03-02T02:00:52;5.68;;;2.40;;
27505;SDS011;14939;43.596;1.320;2024-03-02T02:03:18;6.53;;;2.60;;
27505;SDS011;14939;43.596;1.320;2024-03-02T02:05:43;6.65;;;1.75;;
27505;SDS011;14939;43.596;1.320;2024-03-02T02:08:09;5.43;;;1.58;;
27505;SDS011;14939;43.596;1.320;2024-03-02T02:10:35;4.57;;;1.85;;
27505;SDS011;14939;43.596;1.320;2024-03-02T02:13:01;7.55;;;2.10;;
27505;SDS011;14939;43.596;1.320;2024-03-02T02:15:28;6.10;;;1.85;;
27505;SDS011;14939;43.596;1.320;2024-03-02T02:17:55;8.98;;;1.65;;
27505;SDS011;14939;43.596;1.320;2024-03-02T02:20:21;4.95;;;1.52;;
27505;SDS011;14939;43.596;1.320;2024-03-02T02:22:57;4.05;;;1.60;;
27505;SDS011;14939;43.596;1.320;2024-03-02T02:25:22;6.88;;;1.52;;
27505;SDS011;14939;43.596;1.320;2024-03-02T02:27:48;4.88;;;1.60;;
27505;SDS011;14939;43.596;1.320;2024-03-02T02:30:18;5.07;;;1.60;;
27505;SDS011;14939;43.596;1.320;2024-03-02T02:32:47;5.97;;;1.95;;
27505;SDS011;14939;43.596;1.320;2024-03-02T02:35:13;5.97;;;1.30;;
27505;SDS011;14939;43.596;1.320;2024-03-02T02:37:39;7.38;;;2.13;;
27505;SDS011;14939;43.596;1.320;2024-03-02T02:40:05;6.45;;;1.90;;
27505;SDS011;14939;43.596;1.320;2024-03-02T02:42:31;4.63;;;2.17;;
27505;SDS011;14939;43.596;1.320;2024-03-02T02:44:57;7.95;;;2.15;;
27505;SDS011;14939;43.596;1.320;2024-03-02T02:47:22;9.60;;;2.38;;
27505;SDS011;14939;43.596;1.320;2024-03-02T02:49:48;5.22;;;1.73;;
27505;SDS011;14939;43.596;1.320;2024-03-02T02:52:13;6.80;;;1.83;;
27505;SDS011;14939;43.596;1.320;2024-03-02T02:54:39;7.32;;;1.70;;
27505;SDS011;14939;43.596;1.320;2024-03-02T02:57:04;6.07;;;1.30;;
27505;SDS011;14939;43.596;1.320;2024-03-02T02:59:30;5.10;;;1.40;;
27505;SDS011;14939;43.596;1.320;2024-03-02T03:01:56;3.92;;;1.35;;
27505;SDS011;14939;43.596;1.320;2024-03-02T03:04:21;6.95;;;1.63;;
27505;SDS011;14939;43.596;1.320;2024-03-02T03:06:47;5.68;;;1.63;;
27505;SDS011;14939;43.596;1.320;2024-03-02T03:09:12;6.25;;;1.85;;
27505;SDS011;14939;43.596;1.320;2024-03-02T03:11:38;4.43;;;1.73;;
27505;SDS011;14939;43.596;1.320;2024-03-02T03:14:04;5.85;;;2.10;;
27505;SDS011;14939;43.596;1.320;2024-03-02T03:16:30;12.50;;;3.80;;
27505;SDS011;14939;43.596;1.320;2024-03-02T03:18:55;9.73;;;4.45;;
27505;SDS011;14939;43.596;1.320;2024-03-02T03:21:21;9.20;;;5.43;;
27505;SDS011;14939;43.596;1.320;2024-03-02T03:23:47;11.77;;;5.80;;
27505;SDS011;14939;43.596;1.320;2024-03-02T03:26:12;13.45;;;6.22;;
27505;SDS011;14939;43.596;1.320;2024-03-02T03:28:38;9.18;;;6.32;;
27505;SDS011;14939;43.596;1.320;2024-03-02T03:31:04;14.30;;;7.50;;
27505;SDS011;14939;43.596;1.320;2024-03-02T03:33:29;11.98;;;7.38;;
27505;SDS011;14939;43.596;1.320;2024-03-02T03:35:55;17.92;;;8.50;;
27505;SDS011;14939;43.596;1.320;2024-03-02T03:38:21;12.43;;;8.30;;
27505;SDS011;14939;43.596;1.320;2024-03-02T03:40:46;15.82;;;8.95;;
27505;SDS011;14939;43.596;1.320;2024-03-02T03:43:12;14.85;;;8.50;;
27505;SDS011;14939;43.596;1.320;2024-03-02T03:45:38;13.80;;;8.68;;
27505;SDS011;14939;43.596;1.320;2024-03-02T03:48:04;14.68;;;8.60;;
27505;SDS011;14939;43.596;1.320;2024-03-02T03:50:30;16.35;;;8.55;;
27505;SDS011;14939;43.596;1.320;2024-03-02T03:52:55;13.77;;;8.82;;
27505;SDS011;14939;43.596;1.320;2024-03-02T03:55:21;12.82;;;7.95;;
27505;SDS011;14939;43.596;1.320;2024-03-02T03:57:47;14.48;;;8.13;;
27505;SDS011;14939;43.596;1.320;2024-03-02T04:00:12;11.60;;;7.47;;
27505;SDS011;14939;43.596;1.320;2024-03-02T04:02:38;13.40;;;7.88;;
27505;SDS011;14939;43.596;1.320;2024-03-02T04:05:04;15.82;;;8.10;;
27505;SDS011;14939;43.596;1.320;2024-03-02T04:07:33;10.73;;;7.38;;
27505;SDS011;14939;43.596;1.320;2024-03-02T04:10:05;12.82;;;7.53;;
27505;SDS011;14939;43.596;1.320;2024-03-02T04:12:33;13.23;;;7.43;;
27505;SDS011;14939;43.596;1.320;2024-03-02T04:14:59;15.10;;;7.88;;
27505;SDS011;14939;43.596;1.320;2024-03-02T04:17:26;13.00;;;7.65;;
27505;SDS011;14939;43.596;1.320;2024-03-02T04:19:52;12.88;;;8.30;;
27505;SDS011;14939;43.596;1.320;2024-03-02T04:22:17;13.40;;;8.50;;
27505;SDS011;14939;43.596;1.320;2024-03-02T04:24:43;12.35;;;7.78;;
27505;SDS011;14939;43.596;1.320;2024-03-02T04:27:08;13.55;;;7.85;;
27505;SDS011;14939;43.596;1.320;2024-03-02T04:29:34;13.05;;;8.32;;
27505;SDS011;14939;43.596;1.320;2024-03-02T04:32:00;12.70;;;8.88;;
27505;SDS011;14939;43.596;1.320;2024-03-02T04:34:25;17.58;;;10.00;;
27505;SDS011;14939;43.596;1.320;2024-03-02T04:36:51;22.60;;;10.23;;
27505;SDS011;14939;43.596;1.320;2024-03-02T04:39:16;18.73;;;10.50;;
27505;SDS011;14939;43.596;1.320;2024-03-02T04:41:42;17.25;;;9.55;;
27505;SDS011;14939;43.596;1.320;2024-03-02T04:44:08;16.20;;;9.75;;
27505;SDS011;14939;43.596;1.320;2024-03-02T04:46:33;15.48;;;9.13;;
27505;SDS011;14939;43.596;1.320;2024-03-02T04:48:59;14.25;;;8.23;;
27505;SDS011;14939;43.596;1.320;2024-03-02T04:51:24;13.68;;;8.30;;
27505;SDS011;14939;43.596;1.320;2024-03-02T04:53:50;12.95;;;8.02;;
27505;SDS011;14939;43.596;1.320;2024-03-02T04:56:16;15.05;;;8.13;;
27505;SDS011;14939;43.596;1.320;2024-03-02T04:58:56;12.50;;;7.50;;
27505;SDS011;14939;43.596;1.320;2024-03-02T05:01:22;10.13;;;6.95;;
27505;SDS011;14939;43.596;1.320;2024-03-02T05:03:47;16.08;;;7.05;;
27505;SDS011;14939;43.596;1.320;2024-03-02T05:06:13;11.85;;;7.03;;
27505;SDS011;14939;43.596;1.320;2024-03-02T05:08:39;11.30;;;6.72;;
27505;SDS011;14939;43.596;1.320;2024-03-02T05:11:04;10.50;;;6.40;;
27505;SDS011;14939;43.596;1.320;2024-03-02T05:13:49;13.30;;;6.40;;
27505;SDS011;14939;43.596;1.320;2024-03-02T05:16:14;9.25;;;6.60;;
27505;SDS011;14939;43.596;1.320;2024-03-02T05:18:40;11.00;;;7.00;;
27505;SDS011;14939;43.596;1.320;2024-03-02T05:21:05;9.65;;;6.88;;
27505;SDS011;14939;43.596;1.320;2024-03-02T05:23:31;12.70;;;6.65;;
27505;SDS011;14939;43.596;1.320;2024-03-02T05:25:57;10.98;;;6.60;;
27505;SDS011;14939;43.596;1.320;2024-03-02T05:28:22;10.73;;;6.40;;
27505;SDS011;14939;43.596;1.320;2024-03-02T05:30:48;11.40;;;7.07;;
27505;SDS011;14939;43.596;1.320;2024-03-02T05:33:14;12.40;;;7.03;;
27505;SDS011;14939;43.596;1.320;2024-03-02T05:35:40;10.20;;;6.93;;
27505;SDS011;14939;43.596;1.320;2024-03-02T05:38:05;9.57;;;6.25;;
27505;SDS011;14939;43.596;1.320;2024-03-02T05:40:31;13.93;;;7.00;;
27505;SDS011;14939;43.596;1.320;2024-03-02T05:42:57;9.60;;;6.32;;
27505;SDS011;14939;43.596;1.320;2024-03-02T05:45:22;13.43;;;6.65;;
27505;SDS011;14939;43.596;1.320;2024-03-02T05:47:48;10.82;;;6.45;;
27505;SDS011;14939;43.596;1.320;2024-03-02T05:50:13;10.55;;;6.00;;
27505;SDS011;14939;43.596;1.320;2024-03-02T05:52:39;9.80;;;5.45;;
27505;SDS011;14939;43.596;1.320;2024-03-02T05:55:05;8.68;;;6.07;;
27505;SDS011;14939;43.596;1.320;2024-03-02T05:57:30;9.90;;;5.25;;
27505;SDS011;14939;43.596;1.320;2024-03-02T06:00:08;9.60;;;6.00;;
27505;SDS011;14939;43.596;1.320;2024-03-02T06:02:34;8.80;;;5.90;;
27505;SDS011;14939;43.596;1.320;2024-03-02T06:05:03;9.27;;;5.68;;
27505;SDS011;14939;43.596;1.320;2024-03-02T06:07:29;9.18;;;5.60;;
27505;SDS011;14939;43.596;1.320;2024-03-02T06:09:55;8.77;;;5.68;;
27505;SDS011;14939;43.596;1.320;2024-03-02T06:12:20;8.57;;;5.18;;
27505;SDS011;14939;43.596;1.320;2024-03-02T06:14:46;10.50;;;5.53;;
27505;SDS011;14939;43.596;1.320;2024-03-02T06:17:13;9.85;;;5.07;;
27505;SDS011;14939;43.596;1.320;2024-03-02T06:19:38;9.75;;;5.68;;
27505;SDS011;14939;43.596;1.320;2024-03-02T06:22:04;12.23;;;5.60;;
27505;SDS011;14939;43.596;1.320;2024-03-02T06:24:30;9.77;;;5.60;;
27505;SDS011;14939;43.596;1.320;2024-03-02T06:26:56;9.63;;;5.82;;
27505;SDS011;14939;43.596;1.320;2024-03-02T06:29:21;8.93;;;5.80;;
27505;SDS011;14939;43.596;1.320;2024-03-02T06:31:47;10.30;;;5.95;;
27505;SDS011;14939;43.596;1.320;2024-03-02T06:34:13;9.73;;;6.65;;
27505;SDS011;14939;43.596;1.320;2024-03-02T06:36:39;9.13;;;5.90;;
27505;SDS011;14939;43.596;1.320;2024-03-02T06:39:06;8.57;;;5.88;;
27505;SDS011;14939;43.596;1.320;2024-03-02T06:41:31;11.95;;;6.72;;
27505;SDS011;14939;43.596;1.320;2024-03-02T06:43:57;15.55;;;7.80;;
27505;SDS011;14939;43.596;1.320;2024-03-02T06:46:27;12.77;;;6.95;;
27505;SDS011;14939;43.596;1.320;2024-03-02T06:48:54;13.55;;;6.90;;
27505;SDS011;14939;43.596;1.320;2024-03-02T06:51:20;13.45;;;6.28;;
27505;SDS011;14939;43.596;1.320;2024-03-02T06:53:45;10.25;;;5.97;;
27505;SDS011;14939;43.596;1.320;2024-03-02T06:56:11;9.95;;;6.43;;
27505;SDS011;14939;43.596;1.320;2024-03-02T06:58:37;13.10;;;8.18;;
27505;SDS011;14939;43.596;1.320;2024-03-02T07:01:03;13.55;;;7.50;;
27505;SDS011;14939;43.596;1.320;2024-03-02T07:03:28;15.35;;;8.38;;
27505;SDS011;14939;43.596;1.320;2024-03-02T07:05:54;11.73;;;7.20;;
27505;SDS011;14939;43.596;1.320;2024-03-02T07:08:19;9.60;;;6.35;;
27505;SDS011;14939;43.596;1.320;2024-03-02T07:10:45;9.35;;;5.88;;
27505;SDS011;14939;43.596;1.320;2024-03-02T07:13:14;9.43;;;6.40;;
27505;SDS011;14939;43.596;1.320;2024-03-02T07:15:39;11.63;;;6.50;;
27505;SDS011;14939;43.596;1.320;2024-03-02T07:18:24;11.35;;;6.47;;
27505;SDS011;14939;43.596;1.320;2024-03-02T07:20:50;9.77;;;6.35;;
27505;SDS011;14939;43.596;1.320;2024-03-02T07:23:15;13.18;;;6.78;;
27505;SDS011;14939;43.596;1.320;2024-03-02T07:25:41;10.75;;;6.30;;
27505;SDS011;14939;43.596;1.320;2024-03-02T07:28:07;12.43;;;7.05;;
27505;SDS011;14939;43.596;1.320;2024-03-02T07:30:32;9.52;;;6.03;;
27505;SDS011;14939;43.596;1.320;2024-03-02T07:32:58;11.55;;;6.32;;
27505;SDS011;14939;43.596;1.320;2024-03-02T07:35:24;9.57;;;6.22;;
27505;SDS011;14939;43.596;1.320;2024-03-02T07:37:52;11.88;;;5.93;;
27505;SDS011;14939;43.596;1.320;2024-03-02T07:40:18;11.32;;;6.75;;
27505;SDS011;14939;43.596;1.320;2024-03-02T07:42:44;12.18;;;7.05;;
27505;SDS011;14939;43.596;1.320;2024-03-02T07:45:10;11.98;;;7.28;;
27505;SDS011;14939;43.596;1.320;2024-03-02T07:47:36;11.82;;;7.15;;
27505;SDS011;14939;43.596;1.320;2024-03-02T07:50:02;10.68;;;7.03;;
27505;SDS011;14939;43.596;1.320;2024-03-02T07:52:31;10.68;;;7.03;;
27505;SDS011;14939;43.596;1.320;2024-03-02T07:54:57;11.20;;;6.57;;
27505;SDS011;14939;43.596;1.320;2024-03-02T07:57:23;10.90;;;5.82;;
27505;SDS011;14939;43.596;1.320;2024-03-02T07:59:48;9.75;;;5.60;;
27505;SDS011;14939;43.596;1.320;2024-03-02T08:02:14;10.60;;;6.00;;
27505;SDS011;14939;43.596;1.320;2024-03-02T08:04:40;10.65;;;5.82;;
27505;SDS011;14939;43.596;1.320;2024-03-02T08:07:06;13.20;;;6.20;;
27505;SDS011;14939;43.596;1.320;2024-03-02T08:09:32;9.68;;;5.47;;
27505;SDS011;14939;43.596;1.320;2024-03-02T08:11:57;10.50;;;6.20;;
27505;SDS011;14939;43.596;1.320;2024-03-02T08:14:23;8.63;;;4.72;;
27505;SDS011;14939;43.596;1.320;2024-03-02T08:16:49;9.05;;;4.95;;
27505;SDS011;14939;43.596;1.320;2024-03-02T08:19:15;9.48;;;4.78;;
27505;SDS011;14939;43.596;1.320;2024-03-02T08:21:42;9.63;;;5.18;;
27505;SDS011;14939;43.596;1.320;2024-03-02T08:24:08;8.90;;;4.25;;
27505;SDS011;14939;43.596;1.320;2024-03-02T08:26:34;9.35;;;4.47;;
27505;SDS011;14939;43.596;1.320;2024-03-02T08:29:00;7.85;;;4.35;;
27505;SDS011;14939;43.596;1.320;2024-03-02T08:31:29;8.70;;;4.10;;
27505;SDS011;14939;43.596;1.320;2024-03-02T08:33:55;9.88;;;4.38;;
27505;SDS011;14939;43.596;1.320;2024-03-02T08:36:22;15.50;;;4.57;;
27505;SDS011;14939;43.596;1.320;2024-03-02T08:38:48;7.55;;;3.78;;
27505;SDS011;14939;43.596;1.320;2024-03-02T08:41:14;6.00;;;4.18;;
27505;SDS011;14939;43.596;1.320;2024-03-02T08:43:41;8.10;;;4.72;;
27505;SDS011;14939;43.596;1.320;2024-03-02T08:46:07;9.05;;;4.43;;
27505;SDS011;14939;43.596;1.320;2024-03-02T08:48:33;11.30;;;3.97;;
27505;SDS011;14939;43.596;1.320;2024-03-02T08:50:59;8.82;;;4.25;;
27505;SDS011;14939;43.596;1.320;2024-03-02T08:53:25;9.65;;;3.75;;
27505;SDS011;14939;43.596;1.320;2024-03-02T08:55:51;6.80;;;3.17;;
27505;SDS011;14939;43.596;1.320;2024-03-02T08:58:17;11.52;;;3.75;;
27505;SDS011;14939;43.596;1.320;2024-03-02T09:00:43;7.72;;;3.65;;
27505;SDS011;14939;43.596;1.320;2024-03-02T09:03:09;15.93;;;3.90;;
27505;SDS011;14939;43.596;1.320;2024-03-02T09:05:35;12.98;;;3.78;;
27505;SDS011;14939;43.596;1.320;2024-03-02T09:08:00;9.75;;;3.85;;
27505;SDS011;14939;43.596;1.320;2024-03-02T09:10:26;10.75;;;3.90;;
27505;SDS011;14939;43.596;1.320;2024-03-02T09:12:51;9.73;;;4.32;;
27505;SDS011;14939;43.596;1.320;2024-03-02T09:15:17;9.20;;;3.70;;
27505;SDS011;14939;43.596;1.320;2024-03-02T09:17:43;9.13;;;3.72;;
27505;SDS011;14939;43.596;1.320;2024-03-02T09:20:09;11.77;;;3.60;;
27505;SDS011;14939;43.596;1.320;2024-03-02T09:22:36;10.50;;;3.42;;
27505;SDS011;14939;43.596;1.320;2024-03-02T09:25:01;11.82;;;4.07;;
27505;SDS011;14939;43.596;1.320;2024-03-02T09:27:27;8.88;;;3.58;;
27505;SDS011;14939;43.596;1.320;2024-03-02T09:29:53;10.27;;;4.07;;
27505;SDS011;14939;43.596;1.320;2024-03-02T09:32:18;7.93;;;3.55;;
27505;SDS011;14939;43.596;1.320;2024-03-02T09:34:44;11.13;;;4.20;;
27505;SDS011;14939;43.596;1.320;2024-03-02T09:37:10;11.43;;;4.32;;
27505;SDS011;14939;43.596;1.320;2024-03-02T09:39:36;11.00;;;4.50;;
27505;SDS011;14939;43.596;1.320;2024-03-02T09:42:01;10.77;;;4.50;;
27505;SDS011;14939;43.596;1.320;2024-03-02T09:44:29;10.38;;;4.07;;
27505;SDS011;14939;43.596;1.320;2024-03-02T09:46:55;11.73;;;4.30;;
27505;SDS011;14939;43.596;1.320;2024-03-02T09:49:20;14.27;;;4.88;;
27505;SDS011;14939;43.596;1.320;2024-03-02T09:51:47;11.35;;;4.35;;
27505;SDS011;14939;43.596;1.320;2024-03-02T09:54:15;10.07;;;4.10;;
27505;SDS011;14939;43.596;1.320;2024-03-02T09:56:40;14.90;;;4.03;;
27505;SDS011;14939;43.596;1.320;2024-03-02T09:59:06;12.30;;;4.00;;
27505;SDS011;14939;43.596;1.320;2024-03-02T10:01:32;13.68;;;4.80;;
27505;SDS011;14939;43.596;1.320;2024-03-02T10:04:01;14.85;;;4.75;;
27505;SDS011;14939;43.596;1.320;2024-03-02T10:06:30;13.50;;;4.88;;
27505;SDS011;14939;43.596;1.320;2024-03-02T10:08:55;15.18;;;5.40;;
27505;SDS011;14939;43.596;1.320;2024-03-02T10:11:31;14.02;;;5.28;;
27505;SDS011;14939;43.596;1.320;2024-03-02T10:16:42;13.43;;;5.65;;
27505;SDS011;14939;43.596;1.320;2024-03-02T10:21:50;14.45;;;5.78;;
27505;SDS011;14939;43.596;1.320;2024-03-02T10:24:17;14.55;;;5.28;;
27505;SDS011;14939;43.596;1.320;2024-03-02T10:26:44;12.98;;;4.57;;
27505;SDS011;14939;43.596;1.320;2024-03-02T10:29:10;13.55;;;4.85;;
27505;SDS011;14939;43.596;1.320;2024-03-02T10:31:40;14.30;;;4.97;;
27505;SDS011;14939;43.596;1.320;2024-03-02T10:34:07;10.25;;;4.28;;
27505;SDS011;14939;43.596;1.320;2024-03-02T10:36:33;12.65;;;4.20;;
27505;SDS011;14939;43.596;1.320;2024-03-02T10:39:03;13.95;;;5.03;;
27505;SDS011;14939;43.596;1.320;2024-03-02T10:41:34;8.65;;;4.22;;
27505;SDS011;14939;43.596;1.320;2024-03-02T10:44:04;13.35;;;4.20;;
27505;SDS011;14939;43.596;1.320;2024-03-02T10:46:35;12.10;;;4.40;;
27505;SDS011;14939;43.596;1.320;2024-03-02T10:49:01;13.10;;;4.28;;
27505;SDS011;14939;43.596;1.320;2024-03-02T10:51:29;13.32;;;4.75;;
27505;SDS011;14939;43.596;1.320;2024-03-02T10:53:57;13.18;;;4.45;;
27505;SDS011;14939;43.596;1.320;2024-03-02T10:56:44;11.80;;;4.18;;
27505;SDS011;14939;43.596;1.320;2024-03-02T11:01:42;14.77;;;3.78;;
27505;SDS011;14939;43.596;1.320;2024-03-02T11:04:12;15.05;;;3.95;;
27505;SDS011;14939;43.596;1.320;2024-03-02T11:06:40;13.65;;;4.40;;
27505;SDS011;14939;43.596;1.320;2024-03-02T11:09:12;13.23;;;4.47;;
27505;SDS011;14939;43.596;1.320;2024-03-02T11:11:43;12.18;;;4.15;;
27505;SDS011;14939;43.596;1.320;2024-03-02T11:14:11;12.43;;;4.00;;
27505;SDS011;14939;43.596;1.320;2024-03-02T11:16:40;12.13;;;3.97;;
27505;SDS011;14939;43.596;1.320;2024-03-02T11:19:13;15.90;;;4.30;;
27505;SDS011;14939;43.596;1.320;2024-03-02T11:21:40;11.07;;;4.05;;
27505;SDS011;14939;43.596;1.320;2024-03-02T11:26:47;17.48;;;4.18;;
27505;SDS011;14939;43.596;1.320;2024-03-02T11:32:01;13.10;;;4.20;;
27505;SDS011;14939;43.596;1.320;2024-03-02T11:34:28;10.20;;;3.72;;
27505;SDS011;14939;43.596;1.320;2024-03-02T11:36:54;13.02;;;3.85;;
27505;SDS011;14939;43.596;1.320;2024-03-02T11:39:20;10.57;;;3.70;;
27505;SDS011;14939;43.596;1.320;2024-03-02T11:41:45;8.02;;;3.45;;
27505;SDS011;14939;43.596;1.320;2024-03-02T11:44:11;11.05;;;3.60;;
27505;SDS011;14939;43.596;1.320;2024-03-02T11:46:39;9.38;;;3.90;;
27505;SDS011;14939;43.596;1.320;2024-03-02T11:49:04;12.35;;;3.58;;
27505;SDS011;14939;43.596;1.320;2024-03-02T11:51:32;13.32;;;3.47;;
27505;SDS011;14939;43.596;1.320;2024-03-02T11:53:59;10.80;;;3.63;;
27505;SDS011;14939;43.596;1.320;2024-03-02T11:56:28;9.18;;;3.03;;
27505;SDS011;14939;43.596;1.320;2024-03-02T11:58:55;10.82;;;3.08;;
27505;SDS011;14939;43.596;1.320;2024-03-02T12:01:22;13.77;;;3.17;;
27505;SDS011;14939;43.596;1.320;2024-03-02T12:03:48;10.10;;;3.20;;
27505;SDS011;14939;43.596;1.320;2024-03-02T12:06:14;9.10;;;2.88;;
27505;SDS011;14939;43.596;1.320;2024-03-02T12:08:40;12.13;;;3.00;;
27505;SDS011;14939;43.596;1.320;2024-03-02T12:11:06;13.27;;;3.10;;
27505;SDS011;14939;43.596;1.320;2024-03-02T12:13:31;8.57;;;3.00;;
27505;SDS011;14939;43.596;1.320;2024-03-02T12:15:58;9.38;;;3.20;;
27505;SDS011;14939;43.596;1.320;2024-03-02T12:18:24;10.80;;;3.45;;
27505;SDS011;14939;43.596;1.320;2024-03-02T12:20:50;10.77;;;3.22;;
27505;SDS011;14939;43.596;1.320;2024-03-02T12:23:17;12.23;;;3.13;;
27505;SDS011;14939;43.596;1.320;2024-03-02T12:25:43;9.75;;;3.58;;
27505;SDS011;14939;43.596;1.320;2024-03-02T12:28:10;9.27;;;3.30;;
27505;SDS011;14939;43.596;1.320;2024-03-02T12:30:36;14.82;;;5.40;;
27505;SDS011;14939;43.596;1.320;2024-03-02T12:33:01;12.40;;;4.55;;
27505;SDS011;14939;43.596;1.320;2024-03-02T12:35:27;10.95;;;5.47;;
27505;SDS011;14939;43.596;1.320;2024-03-02T12:37:53;12.20;;;4.15;;
27505;SDS011;14939;43.596;1.320;2024-03-02T12:40:19;15.55;;;4.75;;
27505;SDS011;14939;43.596;1.320;2024-03-02T12:42:47;9.60;;;4.00;;
27505;SDS011;14939;43.596;1.320;2024-03-02T12:45:14;10.32;;;3.58;;
27505;SDS011;14939;43.596;1.320;2024-03-02T12:47:40;9.48;;;3.28;;
27505;SDS011;14939;43.596;1.320;2024-03-02T12:50:08;14.43;;;4.28;;
27505;SDS011;14939;43.596;1.320;2024-03-02T12:52:34;9.38;;;3.67;;
27505;SDS011;14939;43.596;1.320;2024-03-02T12:55:01;11.48;;;3.85;;
27505;SDS011;14939;43.596;1.320;2024-03-02T12:57:30;10.77;;;4.05;;
27505;SDS011;14939;43.596;1.320;2024-03-02T12:59:58;9.25;;;4.38;;
27505;SDS011;14939;43.596;1.320;2024-03-02T13:02:33;9.85;;;3.95;;
27505;SDS011;14939;43.596;1.320;2024-03-02T13:05:00;10.45;;;4.63;;
27505;SDS011;14939;43.596;1.320;2024-03-02T13:07:26;12.52;;;3.83;;
27505;SDS011;14939;43.596;1.320;2024-03-02T13:09:52;10.88;;;4.18;;
27505;SDS011;14939;43.596;1.320;2024-03-02T13:12:20;12.73;;;4.20;;
27505;SDS011;14939;43.596;1.320;2024-03-02T13:14:49;12.85;;;4.18;;
27505;SDS011;14939;43.596;1.320;2024-03-02T13:17:17;7.72;;;3.45;;
27505;SDS011;14939;43.596;1.320;2024-03-02T13:19:53;12.98;;;3.63;;
27505;SDS011;14939;43.596;1.320;2024-03-02T13:22:23;14.35;;;3.78;;
27505;SDS011;14939;43.596;1.320;2024-03-02T13:24:49;11.63;;;3.80;;
27505;SDS011;14939;43.596;1.320;2024-03-02T13:27:16;13.18;;;4.35;;
27505;SDS011;14939;43.596;1.320;2024-03-02T13:29:44;14.05;;;4.10;;
27505;SDS011;14939;43.596;1.320;2024-03-02T13:32:11;10.25;;;3.60;;
27505;SDS011;14939;43.596;1.320;2024-03-02T13:34:37;12.48;;;3.92;;
27505;SDS011;14939;43.596;1.320;2024-03-02T13:37:03;7.85;;;3.10;;
27505;SDS011;14939;43.596;1.320;2024-03-02T13:39:30;9.82;;;3.53;;
27505;SDS011;14939;43.596;1.320;2024-03-02T13:41:59;10.98;;;3.65;;
27505;SDS011;14939;43.596;1.320;2024-03-02T13:44:32;12.25;;;3.67;;
27505;SDS011;14939;43.596;1.320;2024-03-02T13:46:59;9.23;;;4.00;;
27505;SDS011;14939;43.596;1.320;2024-03-02T13:49:25;13.90;;;4.18;;
27505;SDS011;14939;43.596;1.320;2024-03-02T13:51:59;8.93;;;3.92;;
27505;SDS011;14939;43.596;1.320;2024-03-02T13:54:25;9.40;;;3.65;;
27505;SDS011;14939;43.596;1.320;2024-03-02T13:56:51;14.10;;;4.47;;
27505;SDS011;14939;43.596;1.320;2024-03-02T13:59:17;10.73;;;3.67;;
27505;SDS011;14939;43.596;1.320;2024-03-02T14:01:44;9.50;;;3.72;;
27505;SDS011;14939;43.596;1.320;2024-03-02T14:04:09;9.50;;;3.72;;
27505;SDS011;14939;43.596;1.320;2024-03-02T14:06:35;9.27;;;3.60;;
27505;SDS011;14939;43.596;1.320;2024-03-02T14:09:01;11.25;;;3.58;;
27505;SDS011;14939;43.596;1.320;2024-03-02T14:11:26;11.00;;;3.63;;
27505;SDS011;14939;43.596;1.320;2024-03-02T14:13:52;9.68;;;3.42;;
27505;SDS011;14939;43.596;1.320;2024-03-02T14:16:19;10.38;;;3.60;;
27505;SDS011;14939;43.596;1.320;2024-03-02T14:18:45;12.48;;;3.47;;
27505;SDS011;14939;43.596;1.320;2024-03-02T14:21:11;8.85;;;3.65;;
27505;SDS011;14939;43.596;1.320;2024-03-02T14:23:37;14.43;;;3.50;;
27505;SDS011;14939;43.596;1.320;2024-03-02T14:26:02;14.93;;;3.72;;
27505;SDS011;14939;43.596;1.320;2024-03-02T14:28:28;14.02;;;3.80;;
27505;SDS011;14939;43.596;1.320;2024-03-02T14:30:54;10.20;;;3.58;;
27505;SDS011;14939;43.596;1.320;2024-03-02T14:33:20;11.73;;;3.65;;
27505;SDS011;14939;43.596;1.320;2024-03-02T14:35:46;9.85;;;3.35;;
27505;SDS011;14939;43.596;1.320;2024-03-02T14:38:12;11.52;;;3.90;;
27505;SDS011;14939;43.596;1.320;2024-03-02T14:40:38;10.95;;;3.20;;
27505;SDS011;14939;43.596;1.320;2024-03-02T14:43:03;11.13;;;3.55;;
27505;SDS011;14939;43.596;1.320;2024-03-02T14:45:29;10.27;;;3.53;;
27505;SDS011;14939;43.596;1.320;2024-03-02T14:47:55;8.50;;;3.17;;
27505;SDS011;14939;43.596;1.320;2024-03-02T14:50:24;10.57;;;3.20;;